createdAt,value
2023-02-08T00:00:43.637Z,97647.38
2023-02-08T00:02:46.396Z,97679.16
2023-02-08T00:04:50.456Z,97685.94
2023-02-08T00:06:53.150Z,97678.41
2023-02-08T00:08:55.959Z,97482.97
2023-02-08T00:10:59.402Z,97615.03
2023-02-08T00:13:02.218Z,97656.69
2023-02-08T00:15:05.720Z,97670.44
2023-02-08T00:17:08.440Z,97627.94
2023-02-08T00:19:11.157Z,97677.34
2023-02-08T00:21:17.122Z,97650.13
2023-02-08T00:23:20.008Z,97658.97
2023-02-08T00:25:22.705Z,97660.03
2023-02-08T00:27:25.456Z,97583.06
2023-02-08T00:29:28.247Z,97620.41
2023-02-08T00:31:31.059Z,97581.25
2023-02-08T00:33:33.953Z,97653.34
2023-02-08T00:35:37.117Z,97640.94
2023-02-08T00:37:41.898Z,97657.06
2023-02-08T00:39:44.652Z,97645.59
2023-02-08T00:41:47.665Z,97651.81
2023-02-08T00:43:50.338Z,97650.59
2023-02-08T00:45:55.413Z,97649.19
2023-02-08T00:48:00.462Z,97640.34
2023-02-08T00:50:03.465Z,97616.13
2023-02-08T00:52:06.437Z,97637.97
2023-02-08T00:54:15.169Z,97657.28
2023-02-08T00:56:17.988Z,97472.81
2023-02-08T00:58:20.909Z,97645.13
2023-02-08T01:00:23.897Z,97617.78
2023-02-08T01:02:27.102Z,97674.00
2023-02-08T01:04:29.836Z,97642.25
2023-02-08T01:06:32.815Z,97609.75
2023-02-08T01:08:35.721Z,97637.81
2023-02-08T01:10:39.975Z,97643.09
2023-02-08T01:12:43.565Z,97648.81
2023-02-08T01:14:46.444Z,97646.06
2023-02-08T01:16:49.282Z,97647.72
2023-02-08T01:18:54.419Z,97653.72
2023-02-08T01:20:57.056Z,97518.47
2023-02-08T01:22:59.687Z,97584.72
2023-02-08T01:25:02.381Z,97642.00
2023-02-08T01:27:06.796Z,97640.09
2023-02-08T01:29:09.877Z,97643.69
2023-02-08T01:31:18.028Z,97637.72
2023-02-08T01:33:20.693Z,97641.41
2023-02-08T01:35:23.369Z,97635.56
2023-02-08T01:37:26.126Z,97635.09
2023-02-08T01:39:28.783Z,97618.63
2023-02-08T01:41:33.393Z,97623.63
2023-02-08T01:44:00.627Z,97617.91
2023-02-08T01:46:05.969Z,97620.03
2023-02-08T01:48:13.282Z,97616.72
2023-02-08T01:50:19.776Z,97616.00
2023-02-08T01:52:28.711Z,97610.25
2023-02-08T01:54:36.570Z,97577.28
2023-02-08T01:56:45.666Z,97584.59
2023-02-08T01:58:53.010Z,97613.13
2023-02-08T02:00:56.173Z,97591.03
2023-02-08T02:03:01.616Z,97608.81
2023-02-08T02:05:04.493Z,97502.88
2023-02-08T02:07:07.825Z,97497.25
2023-02-08T02:09:18.635Z,97605.25
2023-02-08T02:11:21.501Z,97611.69
2023-02-08T02:13:27.103Z,97608.69
2023-02-08T02:15:30.210Z,97597.84
2023-02-08T02:17:33.147Z,97520.75
2023-02-08T02:19:53.963Z,97607.16
2023-02-08T02:22:06.285Z,97599.63
2023-02-08T02:24:50.174Z,97603.56
2023-02-08T02:27:31.225Z,97498.31
2023-02-08T02:30:18.370Z,97603.34
2023-02-08T02:32:40.640Z,97597.56
2023-02-08T02:34:51.406Z,97534.78
2023-02-08T02:37:03.626Z,97594.97
2023-02-08T02:39:19.214Z,97586.72
2023-02-08T02:41:52.223Z,97592.81
2023-02-08T02:43:59.686Z,97573.47
2023-02-08T02:46:09.274Z,97564.75
2023-02-08T02:48:17.026Z,97592.53
2023-02-08T02:50:26.466Z,97597.91
2023-02-08T02:52:35.860Z,97591.47
2023-02-08T02:54:43.116Z,97584.78
2023-02-08T02:56:48.500Z,97556.63
2023-02-08T02:58:53.548Z,97497.03
2023-02-08T03:00:58.664Z,97591.22
2023-02-08T03:03:01.490Z,97591.97
2023-02-08T03:05:08.575Z,97569.16
2023-02-08T03:07:21.711Z,97488.94
2023-02-08T03:09:42.324Z,97586.22
2023-02-08T03:11:54.844Z,97585.97
2023-02-08T03:14:28.243Z,97578.84
2023-02-08T03:16:39.515Z,97589.19
2023-02-08T03:18:54.085Z,97589.22
2023-02-08T03:21:03.627Z,97593.06
2023-02-08T03:23:15.213Z,97587.06
2023-02-08T03:25:22.993Z,97478.09
2023-02-08T03:27:35.205Z,97583.75
2023-02-08T03:29:49.139Z,97549.63
2023-02-08T03:31:57.213Z,97582.44
2023-02-08T03:34:06.005Z,97588.28
2023-02-08T03:36:21.012Z,97574.19
2023-02-08T03:38:29.068Z,97585.88
2023-02-08T03:40:36.337Z,97579.66
2023-02-08T03:42:40.976Z,97538.47
2023-02-08T03:44:48.589Z,97572.53
2023-02-08T03:46:56.058Z,97519.19
2023-02-08T03:49:03.988Z,97581.84
2023-02-08T03:51:08.004Z,97578.75
2023-02-08T03:53:13.376Z,97577.06
2023-02-08T03:55:19.411Z,97521.59
2023-02-08T03:57:25.793Z,97574.03
2023-02-08T03:59:33.556Z,97459.59
2023-02-08T04:01:43.209Z,97473.19
2023-02-08T04:03:50.135Z,97576.09
2023-02-08T04:05:52.990Z,97569.44
2023-02-08T04:07:56.010Z,97583.03
2023-02-08T04:10:00.166Z,97572.06
2023-02-08T04:12:03.369Z,97567.41
2023-02-08T04:14:06.138Z,97552.56
2023-02-08T04:16:11.367Z,97550.91
2023-02-08T04:18:14.264Z,97571.78
2023-02-08T04:20:17.269Z,97569.66
2023-02-08T04:22:20.025Z,97573.97
2023-02-08T04:24:22.789Z,97564.91
2023-02-08T04:26:27.057Z,97462.88
2023-02-08T04:28:29.801Z,97556.19
2023-02-08T04:30:32.740Z,97457.00
2023-02-08T04:32:35.539Z,97561.31
2023-02-08T04:34:38.453Z,97514.75
2023-02-08T04:36:41.364Z,97578.09
2023-02-08T04:38:44.187Z,97514.81
2023-02-08T04:40:46.955Z,97567.72
2023-02-08T04:42:51.161Z,97546.50
2023-02-08T04:44:53.918Z,97576.19
2023-02-08T04:46:56.724Z,97569.16
2023-02-08T04:48:59.538Z,97558.69
2023-02-08T04:51:02.357Z,97561.16
2023-02-08T04:53:06.447Z,97558.22
2023-02-08T04:55:09.381Z,97559.03
2023-02-08T04:57:14.061Z,97548.31
2023-02-08T04:59:18.427Z,97545.56
2023-02-08T05:01:21.312Z,97555.81
2023-02-08T05:03:24.097Z,97549.75
2023-02-08T05:05:28.205Z,97468.22
2023-02-08T05:07:31.018Z,97422.66
2023-02-08T05:09:34.029Z,97554.88
2023-02-08T05:11:37.527Z,97546.75
2023-02-08T05:13:40.325Z,97372.34
2023-02-08T05:15:44.609Z,97514.91
2023-02-08T05:17:47.414Z,97542.47
2023-02-08T05:19:50.348Z,97541.66
2023-02-08T05:21:53.189Z,97538.66
2023-02-08T05:23:55.963Z,97504.53
2023-02-08T05:25:59.073Z,97542.47
2023-02-08T05:28:02.009Z,97538.78
2023-02-08T05:30:05.842Z,97476.56
2023-02-08T05:32:10.818Z,97314.47
2023-02-08T05:34:13.758Z,97540.56
2023-02-08T05:36:16.738Z,97536.88
2023-02-08T05:38:19.528Z,97534.38
2023-02-08T05:40:22.458Z,97549.41
2023-02-08T05:42:25.212Z,97536.03
2023-02-08T05:44:27.957Z,97539.16
2023-02-08T05:46:30.761Z,97549.41
2023-02-08T05:48:35.353Z,97551.31
2023-02-08T05:50:38.180Z,97561.31
2023-02-08T05:52:41.413Z,97545.56
2023-02-08T05:54:44.205Z,97544.84
2023-02-08T05:56:46.998Z,97548.22
2023-02-08T05:58:49.749Z,97538.41
2023-02-08T06:00:53.535Z,97552.00
2023-02-08T06:02:56.485Z,97553.22
2023-02-08T06:05:00.874Z,97547.72
2023-02-08T06:07:03.645Z,97547.72
2023-02-08T06:09:06.424Z,97556.19
2023-02-08T06:11:09.378Z,97420.06
2023-02-08T06:13:12.103Z,97564.06
2023-02-08T06:15:14.903Z,97579.00
2023-02-08T06:17:17.681Z,97561.09
2023-02-08T06:19:20.724Z,97568.84
2023-02-08T06:21:24.887Z,97565.03
2023-02-08T06:23:27.704Z,97576.00
2023-02-08T06:25:30.580Z,97567.31
2023-02-08T06:27:33.435Z,97471.88
2023-02-08T06:29:36.309Z,97563.84
2023-02-08T06:31:39.385Z,97563.25
2023-02-08T06:33:42.312Z,97512.66
2023-02-08T06:35:46.606Z,97502.34
2023-02-08T06:37:50.725Z,97566.78
2023-02-08T06:39:53.486Z,97572.13
2023-02-08T06:41:56.345Z,97525.19
2023-02-08T06:44:00.519Z,97563.44
2023-02-08T06:46:04.837Z,97549.69
2023-02-08T06:48:07.655Z,97561.75
2023-02-08T06:50:11.591Z,97559.84
2023-02-08T06:52:14.381Z,97556.25
2023-02-08T06:54:18.684Z,97536.69
2023-02-08T06:56:21.486Z,97561.66
2023-02-08T06:58:24.248Z,97533.56
2023-02-08T07:00:27.049Z,97563.00
2023-02-08T07:02:29.915Z,97554.56
2023-02-08T07:04:32.710Z,97563.66
2023-02-08T07:06:35.506Z,97560.56
2023-02-08T07:08:38.438Z,97557.59
2023-02-08T07:10:45.145Z,97571.91
2023-02-08T07:12:48.994Z,97562.38
2023-02-08T07:14:51.868Z,97568.81
2023-02-08T07:16:56.122Z,97559.41
2023-02-08T07:18:59.103Z,97552.84
2023-02-08T07:21:02.078Z,97574.56
2023-02-08T07:23:05.280Z,97532.44
2023-02-08T07:25:09.694Z,97578.97
2023-02-08T07:27:14.501Z,97578.50
2023-02-08T07:29:17.277Z,97566.00
2023-02-08T07:31:20.043Z,97572.91
2023-02-08T07:33:23.241Z,97584.72
2023-02-08T07:35:26.014Z,97547.00
2023-02-08T07:37:28.876Z,97579.59
2023-02-08T07:39:31.639Z,97578.63
2023-02-08T07:41:34.421Z,97571.13
2023-02-08T07:43:40.147Z,97586.03
2023-02-08T07:45:42.986Z,97581.38
2023-02-08T07:47:47.145Z,97553.94
2023-02-08T07:49:49.927Z,97581.34
2023-02-08T07:51:52.674Z,97559.38
2023-02-08T07:53:55.446Z,97562.72
2023-02-08T07:55:58.538Z,97553.72
2023-02-08T07:58:01.306Z,97588.13
2023-02-08T08:00:06.204Z,97586.03
2023-02-08T08:02:15.934Z,97590.63
2023-02-08T08:04:19.755Z,97581.16
2023-02-08T08:06:23.818Z,97584.78
2023-02-08T08:08:26.605Z,97560.06
2023-02-08T08:10:29.612Z,97569.78
2023-02-08T08:12:32.448Z,97575.28
2023-02-08T08:14:35.217Z,97489.19
2023-02-08T08:16:39.360Z,97569.00
2023-02-08T08:18:42.146Z,97514.50
2023-02-08T08:20:44.937Z,97575.16
2023-02-08T08:22:48.043Z,97567.53
2023-02-08T08:24:50.847Z,97572.34
2023-02-08T08:26:53.630Z,97548.44
2023-02-08T08:28:56.472Z,97572.94
2023-02-08T08:30:59.313Z,97431.47
2023-02-08T08:33:03.489Z,97574.97
2023-02-08T08:35:07.512Z,97578.03
2023-02-08T08:37:11.050Z,97572.84
2023-02-08T08:39:13.813Z,97581.72
2023-02-08T08:41:18.705Z,97565.97
2023-02-08T08:43:21.510Z,97577.28
2023-02-08T08:45:24.683Z,97478.91
2023-02-08T08:47:27.568Z,97576.66
2023-02-08T08:49:31.778Z,97574.66
2023-02-08T08:51:35.509Z,97574.38
2023-02-08T08:53:38.779Z,97547.06
2023-02-08T08:55:41.513Z,97540.66
2023-02-08T08:57:44.312Z,97554.00
2023-02-08T08:59:47.075Z,97566.38
2023-02-08T09:01:49.830Z,97571.63
2023-02-08T09:03:52.702Z,97566.72
2023-02-08T09:05:57.342Z,97572.09
2023-02-08T09:08:01.365Z,97564.53
2023-02-08T09:10:05.096Z,97577.47
2023-02-08T09:12:08.540Z,97558.06
2023-02-08T09:14:11.335Z,97563.59
2023-02-08T09:16:16.629Z,97566.25
2023-02-08T09:18:19.365Z,97567.34
2023-02-08T09:20:22.228Z,97556.63
2023-02-08T09:22:26.376Z,97563.38
2023-02-08T09:24:29.109Z,97557.72
2023-02-08T09:26:31.932Z,97534.38
2023-02-08T09:28:35.167Z,97560.75
2023-02-08T09:30:37.924Z,97554.22
2023-02-08T09:32:40.795Z,97558.50
2023-02-08T09:34:43.545Z,97556.47
2023-02-08T09:36:46.308Z,97561.19
2023-02-08T09:38:51.725Z,97552.38
2023-02-08T09:41:04.389Z,97450.41
2023-02-08T09:43:13.862Z,97556.34
2023-02-08T09:45:32.203Z,97547.84
2023-02-08T09:47:36.648Z,97551.91
2023-02-08T09:49:44.895Z,97547.59
2023-02-08T09:51:52.265Z,97561.69
2023-02-08T09:54:02.659Z,97560.53
2023-02-08T09:56:06.868Z,97527.94
2023-02-08T09:58:20.318Z,97548.16
2023-02-08T10:00:31.724Z,97527.25
2023-02-08T10:02:35.496Z,97544.97
2023-02-08T10:04:49.809Z,97543.53
2023-02-08T10:06:52.685Z,97542.31
2023-02-08T10:08:56.921Z,97525.69
2023-02-08T10:11:10.558Z,97547.66
2023-02-08T10:13:40.880Z,97548.28
2023-02-08T10:15:50.508Z,97541.59
2023-02-08T10:18:26.310Z,97535.47
2023-02-08T10:20:40.532Z,97474.63
2023-02-08T10:22:56.060Z,97539.47
2023-02-08T10:25:13.925Z,97534.97
2023-02-08T10:27:18.610Z,97530.69
2023-02-08T10:29:38.258Z,97446.81
2023-02-08T10:31:56.035Z,97533.84
2023-02-08T10:34:03.429Z,97504.31
2023-02-08T10:36:15.453Z,97540.81
2023-02-08T10:38:27.925Z,97501.44
2023-02-08T10:40:37.680Z,97527.41
2023-02-08T10:42:41.143Z,97541.84
2023-02-08T10:45:01.952Z,97531.22
2023-02-08T10:47:15.223Z,97534.38
2023-02-08T10:49:23.865Z,97519.63
2023-02-08T10:51:27.464Z,97530.31
2023-02-08T10:53:30.379Z,97527.53
2023-02-08T10:55:38.144Z,97513.81
2023-02-08T10:57:41.183Z,97515.50
2023-02-08T10:59:50.578Z,97514.03
2023-02-08T11:01:54.540Z,97506.22
2023-02-08T11:04:10.071Z,97520.38
2023-02-08T11:06:27.232Z,97500.09
2023-02-08T11:08:29.997Z,97510.28
2023-02-08T11:10:35.141Z,97508.09
2023-02-08T11:12:37.917Z,97511.06
2023-02-08T11:14:47.040Z,97501.41
2023-02-08T11:16:51.802Z,97500.63
2023-02-08T11:18:57.168Z,97497.69
2023-02-08T11:21:03.149Z,97435.25
2023-02-08T11:23:17.619Z,97499.06
2023-02-08T11:25:38.777Z,97443.00
2023-02-08T11:27:49.744Z,97492.53
2023-02-08T11:30:18.921Z,97488.28
2023-02-08T11:32:21.842Z,97444.84
2023-02-08T11:34:26.123Z,97478.28
2023-02-08T11:36:32.377Z,97473.59
2023-02-08T11:38:41.426Z,97476.69
2023-02-08T11:40:46.604Z,97467.56
2023-02-08T11:42:50.146Z,97469.72
2023-02-08T11:44:54.394Z,97453.56
2023-02-08T11:47:00.987Z,97410.88
2023-02-08T11:49:04.565Z,97452.84
2023-02-08T11:51:08.261Z,97460.47
2023-02-08T11:53:29.938Z,97450.00
2023-02-08T11:55:35.025Z,97438.56
2023-02-08T11:57:54.652Z,97431.78
2023-02-08T12:00:18.626Z,97442.47
2023-02-08T12:02:31.328Z,97448.59
2023-02-08T12:04:34.162Z,97369.22
2023-02-08T12:07:07.488Z,97444.94
2023-02-08T12:09:20.351Z,97366.41
2023-02-08T12:11:30.180Z,97435.09
2023-02-08T12:14:04.595Z,97445.41
2023-02-08T12:16:20.155Z,97433.13
2023-02-08T12:18:48.844Z,97436.88
2023-02-08T12:20:57.455Z,97417.50
2023-02-08T12:23:22.136Z,97420.13
2023-02-08T12:25:33.354Z,97423.59
2023-02-08T12:27:44.063Z,97348.28
2023-02-08T12:29:57.206Z,97337.53
2023-02-08T12:32:13.342Z,97409.72
2023-02-08T12:34:23.635Z,97401.94
2023-02-08T12:36:43.733Z,97400.47
2023-02-08T12:39:25.710Z,97401.69
2023-02-08T12:41:33.009Z,97318.97
2023-02-08T12:43:48.962Z,97384.59
2023-02-08T12:46:22.452Z,97369.34
2023-02-08T12:48:49.132Z,97389.31
2023-02-08T12:50:57.551Z,97383.19
2023-02-08T12:53:04.659Z,97388.34
2023-02-08T12:55:18.304Z,97365.84
2023-02-08T12:57:24.246Z,97386.47
2023-02-08T12:59:33.027Z,97383.19
2023-02-08T13:01:44.133Z,97362.13
2023-02-08T13:03:52.613Z,97342.75
2023-02-08T13:06:02.130Z,97361.31
2023-02-08T13:08:15.308Z,97354.03
2023-02-08T13:10:27.038Z,97355.66
2023-02-08T13:12:34.143Z,97349.78
2023-02-08T13:14:41.170Z,97295.38
2023-02-08T13:16:50.095Z,97353.00
2023-02-08T13:18:56.492Z,97345.84
2023-02-08T13:21:02.772Z,97351.00
2023-02-08T13:23:14.765Z,97341.94
2023-02-08T13:25:24.809Z,97346.84
2023-02-08T13:27:27.600Z,97339.22
2023-02-08T13:29:33.179Z,97339.16
2023-02-08T13:31:42.053Z,97333.88
2023-02-08T13:34:00.759Z,97334.69
2023-02-08T13:36:05.746Z,97325.53
2023-02-08T13:38:21.956Z,97327.81
2023-02-08T13:40:29.066Z,97313.97
2023-02-08T13:42:37.062Z,97327.91
2023-02-08T13:44:41.630Z,97325.44
2023-02-08T13:46:46.795Z,97316.00
2023-02-08T13:48:52.689Z,97317.44
2023-02-08T13:50:56.932Z,97317.59
2023-02-08T13:52:59.706Z,97326.03
2023-02-08T13:55:50.229Z,97328.75
2023-02-08T13:57:54.910Z,97327.44
2023-02-08T14:00:22.960Z,97335.13
2023-02-08T14:02:29.729Z,97239.13
2023-02-08T14:04:38.528Z,97334.97
2023-02-08T14:06:49.318Z,97324.22
2023-02-08T14:08:58.154Z,97328.09
2023-02-08T14:11:13.222Z,97324.63
2023-02-08T14:13:27.990Z,97323.91
2023-02-08T14:15:39.390Z,97301.28
2023-02-08T14:17:44.827Z,97254.94
2023-02-08T14:19:58.931Z,97323.97
2023-02-08T14:22:04.091Z,97330.59
2023-02-08T14:24:09.709Z,97344.59
2023-02-08T14:26:24.004Z,97337.97
2023-02-08T14:28:30.081Z,97339.97
2023-02-08T14:30:34.797Z,97332.63
2023-02-08T14:32:41.018Z,97331.94
2023-02-08T14:34:45.048Z,97333.47
2023-02-08T14:37:00.814Z,97331.75
2023-02-08T14:39:30.454Z,97326.47
2023-02-08T14:41:55.381Z,97324.59
2023-02-08T14:43:58.141Z,97323.97
2023-02-08T14:46:34.405Z,97324.75
2023-02-08T14:48:45.491Z,97323.09
2023-02-08T14:51:20.058Z,97325.28
2023-02-08T14:53:30.199Z,97325.84
2023-02-08T14:55:40.096Z,97304.72
2023-02-08T14:57:44.320Z,97316.16
2023-02-08T14:59:47.268Z,97324.94
2023-02-08T15:01:53.604Z,97330.75
2023-02-08T15:04:01.709Z,97324.41
2023-02-08T15:06:38.092Z,97321.72
2023-02-08T15:08:42.414Z,97322.53
2023-02-08T15:10:45.960Z,97297.69
2023-02-08T15:12:52.243Z,97328.50
2023-02-08T15:14:56.797Z,97310.00
2023-02-08T15:16:59.854Z,97248.94
2023-02-08T15:19:04.994Z,97251.78
2023-02-08T15:21:16.576Z,97328.84
2023-02-08T15:23:21.570Z,97315.66
2023-02-08T15:25:28.340Z,97325.56
2023-02-08T15:27:33.107Z,97318.03
2023-02-08T15:29:44.809Z,97328.72
2023-02-08T15:31:49.114Z,97320.84
2023-02-08T15:33:54.691Z,97330.44
2023-02-08T15:36:00.589Z,97334.22
2023-02-08T15:38:06.908Z,97315.47
2023-02-08T15:40:24.047Z,97253.84
2023-02-08T15:42:32.953Z,97276.84
2023-02-08T15:44:35.980Z,97313.94
2023-02-08T15:46:39.056Z,97311.81
2023-02-08T15:48:43.507Z,97219.06
2023-02-08T15:50:46.380Z,97265.28
2023-02-08T15:52:52.412Z,97269.69
2023-02-08T15:54:56.772Z,97281.09
2023-02-08T15:57:03.825Z,97314.91
2023-02-08T15:59:15.416Z,97320.09
2023-02-08T16:01:20.794Z,97316.41
2023-02-08T16:03:25.179Z,97266.16
2023-02-08T16:05:30.952Z,97327.66
2023-02-08T16:07:38.419Z,97338.69
2023-02-08T16:09:41.594Z,97339.25
2023-02-08T16:11:49.149Z,97335.97
2023-02-08T16:13:54.825Z,97333.19
2023-02-08T16:16:16.396Z,97273.84
2023-02-08T16:18:35.762Z,97289.25
2023-02-08T16:20:38.606Z,97308.16
2023-02-08T16:22:41.407Z,97327.56
2023-02-08T16:24:46.882Z,97303.59
2023-02-08T16:27:01.724Z,97270.59
2023-02-08T16:29:07.023Z,97326.91
2023-02-08T16:31:11.438Z,97333.53
2023-02-08T16:33:14.613Z,97328.72
2023-02-08T16:35:25.055Z,97333.03
2023-02-08T16:37:30.713Z,97311.13
2023-02-08T16:39:42.235Z,97320.88
2023-02-08T16:42:15.818Z,97329.16
2023-02-08T16:44:25.934Z,97177.41
2023-02-08T16:46:30.394Z,97281.13
2023-02-08T16:48:36.129Z,97328.25
2023-02-08T16:50:39.577Z,97303.50
2023-02-08T16:52:42.481Z,97320.44
2023-02-08T16:54:45.392Z,97328.50
2023-02-08T16:56:53.474Z,97334.94
2023-02-08T16:58:56.300Z,97327.63
2023-02-08T17:01:00.054Z,97320.47
2023-02-08T17:03:04.296Z,97347.59
2023-02-08T17:05:07.294Z,97325.84
2023-02-08T17:07:18.265Z,97340.91
2023-02-08T17:09:20.985Z,97338.09
2023-02-08T17:11:23.701Z,97317.00
2023-02-08T17:13:27.658Z,97341.16
2023-02-08T17:15:30.353Z,97349.38
2023-02-08T17:17:33.062Z,97274.97
2023-02-08T17:19:37.128Z,97354.34
2023-02-08T17:21:39.815Z,97304.84
2023-02-08T17:23:42.688Z,97358.91
2023-02-08T17:25:46.238Z,97350.09
2023-02-08T17:27:53.070Z,97361.88
2023-02-08T17:29:55.785Z,97366.13
2023-02-08T17:31:58.427Z,97268.56
2023-02-08T17:34:04.978Z,97298.31
2023-02-08T17:36:10.000Z,97177.63
2023-02-08T17:38:15.315Z,97317.72
2023-02-08T17:40:19.442Z,97301.94
2023-02-08T17:42:22.188Z,97284.47
2023-02-08T17:44:24.938Z,97297.53
2023-02-08T17:46:30.550Z,97375.75
2023-02-08T17:48:33.283Z,97376.94
2023-02-08T17:50:36.852Z,97378.34
2023-02-08T17:52:41.956Z,97374.50
2023-02-08T17:54:45.010Z,97377.06
2023-02-08T17:56:47.790Z,97369.72
2023-02-08T17:58:53.646Z,97377.25
2023-02-08T18:00:57.078Z,97370.94
2023-02-08T18:03:00.982Z,97387.31
2023-02-08T18:05:04.424Z,97374.03
2023-02-08T18:07:07.203Z,97378.34
2023-02-08T18:09:11.667Z,97378.19
2023-02-08T18:11:18.046Z,97382.94
2023-02-08T18:13:20.906Z,97388.22
2023-02-08T18:15:24.175Z,97392.38
2023-02-08T18:17:26.948Z,97372.34
2023-02-08T18:19:30.276Z,97381.94
2023-02-08T18:21:33.114Z,97381.88
2023-02-08T18:23:35.855Z,97365.72
2023-02-08T18:25:40.896Z,97287.44
2023-02-08T18:27:43.691Z,97374.16
2023-02-08T18:29:46.925Z,97371.41
2023-02-08T18:31:50.493Z,97370.44
2023-02-08T18:33:53.896Z,97361.19
2023-02-08T18:35:56.615Z,97236.69
2023-02-08T18:37:59.331Z,97372.69
2023-02-08T18:40:02.064Z,97361.44
2023-02-08T18:42:06.560Z,97361.44
2023-02-08T18:44:10.728Z,97365.34
2023-02-08T18:46:15.938Z,97370.63
2023-02-08T18:48:18.668Z,97372.06
2023-02-08T18:50:21.501Z,97373.56
2023-02-08T18:52:24.789Z,97360.84
2023-02-08T18:54:27.505Z,97374.84
2023-02-08T18:56:30.234Z,97359.72
2023-02-08T18:58:35.357Z,97369.22
2023-02-08T19:00:38.146Z,97368.81
2023-02-08T19:02:41.361Z,97378.25
2023-02-08T19:04:44.056Z,97376.44
2023-02-08T19:06:46.819Z,97374.38
2023-02-08T19:08:51.538Z,97372.72
2023-02-08T19:10:54.338Z,97376.34
2023-02-08T19:12:57.120Z,97371.88
2023-02-08T19:15:01.340Z,97363.28
2023-02-08T19:17:04.466Z,97359.31
2023-02-08T19:19:08.268Z,97359.16
2023-02-08T19:21:13.223Z,97281.03
2023-02-08T19:23:16.048Z,97267.31
2023-02-08T19:25:18.888Z,97334.09
2023-02-08T19:27:21.676Z,97345.22
2023-02-08T19:29:24.725Z,97335.38
2023-02-08T19:31:30.402Z,97354.53
2023-02-08T19:33:33.538Z,97352.16
2023-02-08T19:35:39.834Z,97289.38
2023-02-08T19:37:42.887Z,97299.47
2023-02-08T19:39:45.629Z,97254.03
2023-02-08T19:41:48.923Z,97335.81
2023-02-08T19:43:51.867Z,97336.50
2023-02-08T19:45:54.736Z,97335.94
2023-02-08T19:47:58.939Z,97329.00
2023-02-08T19:50:01.712Z,97328.72
2023-02-08T19:52:04.728Z,97306.97
2023-02-08T19:54:10.319Z,97276.38
2023-02-08T19:56:15.682Z,97338.44
2023-02-08T19:58:18.422Z,97324.19
2023-02-08T20:00:24.305Z,97354.28
2023-02-08T20:02:28.312Z,97360.38
2023-02-08T20:04:33.509Z,97354.28
2023-02-08T20:06:38.773Z,97323.09
2023-02-08T20:08:42.184Z,97292.72
2023-02-08T20:10:46.782Z,97357.19
2023-02-08T20:12:49.678Z,97352.22
2023-02-08T20:14:52.467Z,97351.97
2023-02-08T20:16:55.426Z,97343.50
2023-02-08T20:18:58.781Z,97341.00
2023-02-08T20:21:03.832Z,97342.09
2023-02-08T20:23:20.934Z,97301.34
2023-02-08T20:25:25.715Z,97327.16
2023-02-08T20:27:32.109Z,97287.50
2023-02-08T20:29:34.837Z,97345.44
2023-02-08T20:31:40.918Z,97347.25
2023-02-08T20:33:44.276Z,97349.19
2023-02-08T20:35:47.001Z,97354.91
2023-02-08T20:37:51.094Z,97342.97
2023-02-08T20:39:53.952Z,97339.63
2023-02-08T20:41:56.675Z,97336.03
2023-02-08T20:43:59.946Z,97340.47
2023-02-08T20:46:06.532Z,97289.19
2023-02-08T20:48:10.098Z,97364.44
2023-02-08T20:50:19.570Z,96947.06
2023-02-08T20:52:22.875Z,97301.91
2023-02-08T20:54:27.475Z,97349.88
2023-02-08T20:56:32.380Z,97038.22
2023-02-08T20:58:35.497Z,97336.88
2023-02-08T21:00:42.330Z,97339.09
2023-02-08T21:02:46.314Z,97330.47
2023-02-08T21:04:49.384Z,97267.69
2023-02-08T21:06:52.596Z,97315.22
2023-02-08T21:08:55.685Z,97318.28
2023-02-08T21:11:02.672Z,97320.22
2023-02-08T21:13:05.493Z,97294.56
2023-02-08T21:15:09.680Z,97336.44
2023-02-08T21:17:12.509Z,97307.31
2023-02-08T21:19:15.968Z,97342.25
2023-02-08T21:21:19.760Z,97344.88
2023-02-08T21:23:22.485Z,97338.22
2023-02-08T21:25:25.390Z,97334.91
2023-02-08T21:27:29.995Z,97330.75
2023-02-08T21:29:32.798Z,97303.25
2023-02-08T21:31:37.380Z,97249.06
2023-02-08T21:33:40.199Z,97298.69
2023-02-08T21:35:43.009Z,97308.25
2023-02-08T21:37:45.767Z,97292.44
2023-02-08T21:39:48.530Z,97295.22
2023-02-08T21:41:53.057Z,97177.34
2023-02-08T21:43:59.745Z,97322.66
2023-02-08T21:46:03.750Z,97319.31
2023-02-08T21:48:07.449Z,97319.59
2023-02-08T21:50:28.493Z,97314.59
2023-02-08T21:52:48.587Z,97305.19
2023-02-08T21:54:53.516Z,97319.88
2023-02-08T21:56:56.696Z,97106.69
2023-02-08T21:59:00.814Z,97311.53
2023-02-08T22:01:05.806Z,97306.00
2023-02-08T22:03:08.727Z,97303.91
2023-02-08T22:05:12.574Z,97299.59
2023-02-08T22:07:16.089Z,97231.66
2023-02-08T22:09:20.531Z,97306.63
2023-02-08T22:11:23.325Z,97296.38
2023-02-08T22:13:26.258Z,97311.91
2023-02-08T22:15:31.576Z,97320.31
2023-02-08T22:17:34.505Z,97310.91
2023-02-08T22:19:38.575Z,97316.41
2023-02-08T22:21:41.466Z,97215.16
2023-02-08T22:23:44.301Z,97310.84
2023-02-08T22:25:47.165Z,97320.13
2023-02-08T22:27:50.256Z,97309.41
2023-02-08T22:29:54.756Z,97285.41
2023-02-08T22:31:59.003Z,97312.06
2023-02-08T22:34:01.910Z,97320.19
2023-02-08T22:36:07.740Z,97300.84
2023-02-08T22:38:10.537Z,97316.00
2023-02-08T22:40:13.908Z,97301.84
2023-02-08T22:42:16.697Z,97305.13
2023-02-08T22:44:19.493Z,97312.31
2023-02-08T22:46:22.401Z,97207.47
2023-02-08T22:48:27.015Z,97303.81
2023-02-08T22:50:29.829Z,97212.81
2023-02-08T22:52:34.491Z,97300.53
2023-02-08T22:54:37.532Z,97299.97
2023-02-08T22:56:40.270Z,97226.97
2023-02-08T22:58:43.384Z,97276.03
2023-02-08T23:00:48.189Z,97277.31
2023-02-08T23:02:51.141Z,97306.84
2023-02-08T23:04:55.412Z,97247.16
2023-02-08T23:06:58.753Z,97289.25
2023-02-08T23:09:01.586Z,97295.66
2023-02-08T23:11:06.363Z,97261.81
2023-02-08T23:13:09.202Z,97235.44
2023-02-08T23:15:12.544Z,97253.06
2023-02-08T23:17:15.356Z,97291.59
2023-02-08T23:19:19.832Z,97281.53
2023-02-08T23:21:24.047Z,97182.63
2023-02-08T23:23:27.143Z,97281.81
2023-02-08T23:25:29.901Z,97289.13
2023-02-08T23:27:32.687Z,97273.63
2023-02-08T23:29:35.486Z,97322.88
2023-02-08T23:31:40.629Z,97210.88
2023-02-08T23:33:43.740Z,97258.88
2023-02-08T23:35:46.509Z,97290.78
2023-02-08T23:37:50.587Z,97170.41
2023-02-08T23:39:53.349Z,97282.84
2023-02-08T23:41:56.797Z,97289.06
2023-02-08T23:43:59.651Z,97277.72
2023-02-08T23:46:07.163Z,97283.66
2023-02-08T23:48:09.983Z,97197.41
2023-02-08T23:50:12.749Z,97270.09
2023-02-08T23:52:15.966Z,97263.44
2023-02-08T23:54:20.764Z,97257.72
2023-02-08T23:56:25.505Z,97266.69
2023-02-08T23:58:28.343Z,97272.78
